createdAt,value
2022-12-24T00:05:23.968Z,10.3
2022-12-24T00:25:25.576Z,10.1
2022-12-24T00:35:26.289Z,10
2022-12-24T00:45:26.935Z,10.1
2022-12-24T00:55:27.724Z,10.1
2022-12-24T01:05:28.620Z,10.1
2022-12-24T01:15:29.564Z,10.2
2022-12-24T01:25:30.063Z,10.2
2022-12-24T01:35:30.760Z,10.3
2022-12-24T01:55:31.598Z,10.3
2022-12-24T02:05:31.713Z,10.3
2022-12-24T02:15:31.958Z,10.2
2022-12-24T02:25:32.607Z,10.2
2022-12-24T02:35:32.821Z,10.2
2022-12-24T02:45:33.645Z,10.2
2022-12-24T02:55:33.763Z,10.2
2022-12-24T03:05:34.543Z,10.1
2022-12-24T03:15:35.545Z,10.1
2022-12-24T03:25:35.906Z,9.9
2022-12-24T03:35:36.412Z,9.9
2022-12-24T03:45:36.647Z,10
2022-12-24T04:05:37.020Z,9.9
2022-12-24T04:15:37.571Z,9.8
2022-12-24T04:25:37.917Z,9.8
2022-12-24T04:35:38.523Z,9.8
2022-12-24T04:45:38.926Z,9.9
2022-12-24T04:55:39.558Z,9.9
2022-12-24T05:05:40.342Z,9.9
2022-12-24T05:15:41.005Z,9.9
2022-12-24T05:25:41.574Z,9.9
2022-12-24T05:35:42.506Z,9.9
2022-12-24T05:45:43.142Z,9.9
2022-12-24T05:55:43.483Z,10
2022-12-24T06:05:44.196Z,10
2022-12-24T06:15:44.957Z,10.1
2022-12-24T06:25:45.761Z,10.1
2022-12-24T06:35:46.428Z,10.2
2022-12-24T06:45:46.607Z,10.2
2022-12-24T06:55:46.905Z,10.1
2022-12-24T07:05:47.354Z,10.2
2022-12-24T07:15:47.632Z,10.3
2022-12-24T07:25:48.113Z,10.3
2022-12-24T07:35:52.276Z,10.1
2022-12-24T07:45:48.986Z,10
2022-12-24T07:55:49.972Z,10
2022-12-24T08:05:50.100Z,10
2022-12-24T08:15:50.649Z,10.1
2022-12-24T08:25:50.766Z,10.1
2022-12-24T08:35:51.498Z,10.2
2022-12-24T08:45:51.789Z,10.4
2022-12-24T08:55:55.863Z,10.5
2022-12-24T09:05:53.075Z,10.5
2022-12-24T09:15:53.518Z,10.5
2022-12-24T09:35:54.848Z,10.6
2022-12-24T09:55:55.162Z,10.6
2022-12-24T10:15:56.415Z,10.7
2022-12-24T10:35:57.937Z,10.9
2022-12-24T10:55:59.369Z,11.2
2022-12-24T11:36:01.808Z,11.1
2022-12-24T11:56:03.521Z,11.1
2022-12-24T12:16:05.079Z,11.2
2022-12-24T12:36:06.161Z,11.2
2022-12-24T12:46:06.308Z,11.2
2022-12-24T12:56:07.011Z,11.3
2022-12-24T13:16:07.598Z,11.5
2022-12-24T13:36:08.745Z,11.3
2022-12-24T13:46:09.564Z,11.2
2022-12-24T13:56:09.991Z,11.1
2022-12-24T14:16:11.153Z,11.3
2022-12-24T14:26:11.801Z,11.3
2022-12-24T14:36:12.244Z,11.2
2022-12-24T14:56:13.411Z,10.9
2022-12-24T15:06:13.947Z,10.6
2022-12-24T15:16:14.165Z,10.4
2022-12-24T15:26:14.893Z,10.2
2022-12-24T15:36:15.538Z,9.9
2022-12-24T15:46:15.961Z,9.7
2022-12-24T15:56:16.899Z,9.5
2022-12-24T16:06:17.078Z,9.4
2022-12-24T16:16:17.708Z,9.2
2022-12-24T16:26:17.896Z,9.1
2022-12-24T16:36:18.942Z,8.8
2022-12-24T16:46:19.229Z,8.7
2022-12-24T17:06:20.900Z,8.5
2022-12-24T17:16:21.757Z,8.3
2022-12-24T17:26:22.271Z,8.3
2022-12-24T17:36:23.246Z,8.2
2022-12-24T17:46:24.112Z,8.1
2022-12-24T18:06:25.374Z,7.7
2022-12-24T18:16:26.115Z,7.6
2022-12-24T18:26:26.944Z,7.4
2022-12-24T18:36:27.141Z,7.4
2022-12-24T18:46:28.152Z,7.2
2022-12-24T18:56:29.003Z,6.7
2022-12-24T19:06:29.697Z,6.5
2022-12-24T19:16:30.892Z,6.4
2022-12-24T19:26:30.998Z,6.3
2022-12-24T19:36:31.152Z,6.1
2022-12-24T19:46:32.005Z,6
2022-12-24T19:56:32.730Z,5.7
2022-12-24T20:06:33.433Z,5.6
2022-12-24T20:16:34.481Z,5.6
2022-12-24T20:26:35.116Z,5.6
2022-12-24T20:36:35.530Z,5.5
2022-12-24T20:46:35.902Z,5.6
2022-12-24T20:56:36.199Z,5.6
2022-12-24T21:06:37.013Z,5.6
2022-12-24T21:16:37.424Z,5.6
2022-12-24T21:26:38.123Z,5.6
2022-12-24T21:36:38.798Z,5.6
2022-12-24T21:46:39.205Z,5.6
2022-12-24T21:56:39.387Z,5.7
2022-12-24T22:06:39.823Z,5.8
2022-12-24T22:16:40.919Z,5.9
2022-12-24T22:26:41.588Z,6.2
2022-12-24T22:36:41.892Z,6.1
2022-12-24T22:46:42.542Z,6.1
2022-12-24T22:56:42.746Z,6.2
2022-12-24T23:06:42.866Z,6.7
2022-12-24T23:16:43.383Z,6.9
2022-12-24T23:26:43.612Z,6.8
2022-12-24T23:36:44.568Z,6.3
2022-12-24T23:46:45.548Z,6
2022-12-24T23:56:45.798Z,5.8
